sensor_id;sensor_type;location;lat;lon;timestamp;pressure;altitude;pressure_sealevel;temperature;humidity
41250;BME280;26984;59.928;30.306;2023-02-26T00:00:05;99887.72;;;-2.23;100.00
41250;BME280;26984;59.928;30.306;2023-02-26T00:02:36;99886.22;;;-2.26;100.00
41250;BME280;26984;59.928;30.306;2023-02-26T00:05:04;99897.97;;;-2.20;100.00
41250;BME280;26984;59.928;30.306;2023-02-26T00:07:32;99893.16;;;-2.25;100.00
41250;BME280;26984;59.928;30.306;2023-02-26T00:10:00;99887.03;;;-2.25;100.00
41250;BME280;26984;59.928;30.306;2023-02-26T00:12:28;99891.97;;;-2.30;100.00
41250;BME280;26984;59.928;30.306;2023-02-26T00:14:56;99898.44;;;-2.43;100.00
41250;BME280;26984;59.928;30.306;2023-02-26T00:17:38;99897.75;;;-2.45;100.00
41250;BME280;26984;59.928;30.306;2023-02-26T00:20:08;99894.50;;;-2.38;100.00
41250;BME280;26984;59.928;30.306;2023-02-26T00:22:36;99892.63;;;-2.28;100.00
41250;BME280;26984;59.928;30.306;2023-02-26T00:25:04;99897.66;;;-2.35;100.00
41250;BME280;26984;59.928;30.306;2023-02-26T00:27:32;99882.69;;;-2.34;100.00
41250;BME280;26984;59.928;30.306;2023-02-26T00:30:00;99879.66;;;-2.39;100.00
41250;BME280;26984;59.928;30.306;2023-02-26T00:32:28;99886.91;;;-2.42;100.00
41250;BME280;26984;59.928;30.306;2023-02-26T00:34:58;99883.94;;;-2.38;100.00
41250;BME280;26984;59.928;30.306;2023-02-26T00:37:27;99887.44;;;-2.38;100.00
41250;BME280;26984;59.928;30.306;2023-02-26T00:40:00;99889.84;;;-2.45;100.00
41250;BME280;26984;59.928;30.306;2023-02-26T00:42:32;99897.91;;;-2.46;100.00
41250;BME280;26984;59.928;30.306;2023-02-26T00:45:00;99895.94;;;-2.44;100.00
41250;BME280;26984;59.928;30.306;2023-02-26T00:47:28;99901.06;;;-2.43;100.00
41250;BME280;26984;59.928;30.306;2023-02-26T00:50:04;99894.13;;;-2.44;100.00
41250;BME280;26984;59.928;30.306;2023-02-26T00:52:35;99922.16;;;-2.43;100.00
41250;BME280;26984;59.928;30.306;2023-02-26T00:55:05;99895.66;;;-2.41;100.00
41250;BME280;26984;59.928;30.306;2023-02-26T00:57:33;99895.34;;;-2.38;100.00
41250;BME280;26984;59.928;30.306;2023-02-26T01:00:00;99903.03;;;-2.45;100.00
41250;BME280;26984;59.928;30.306;2023-02-26T01:02:31;99904.31;;;-2.49;100.00
41250;BME280;26984;59.928;30.306;2023-02-26T01:04:58;99895.66;;;-2.41;100.00
41250;BME280;26984;59.928;30.306;2023-02-26T01:07:28;99902.22;;;-2.45;100.00
41250;BME280;26984;59.928;30.306;2023-02-26T01:10:00;99891.28;;;-2.50;100.00
41250;BME280;26984;59.928;30.306;2023-02-26T01:12:29;99897.47;;;-2.42;100.00
41250;BME280;26984;59.928;30.306;2023-02-26T01:14:56;99902.56;;;-2.40;100.00
41250;BME280;26984;59.928;30.306;2023-02-26T01:17:24;99911.63;;;-2.25;100.00
41250;BME280;26984;59.928;30.306;2023-02-26T01:19:56;99908.44;;;-2.28;100.00
41250;BME280;26984;59.928;30.306;2023-02-26T01:22:29;99903.16;;;-2.28;100.00
41250;BME280;26984;59.928;30.306;2023-02-26T01:25:00;99907.16;;;-2.24;100.00
41250;BME280;26984;59.928;30.306;2023-02-26T01:27:29;99904.91;;;-2.19;100.00
41250;BME280;26984;59.928;30.306;2023-02-26T01:29:57;99908.22;;;-2.17;100.00
41250;BME280;26984;59.928;30.306;2023-02-26T01:32:26;99912.13;;;-2.39;100.00
41250;BME280;26984;59.928;30.306;2023-02-26T01:34:57;99907.84;;;-2.40;100.00
41250;BME280;26984;59.928;30.306;2023-02-26T01:37:30;99901.00;;;-2.51;100.00
41250;BME280;26984;59.928;30.306;2023-02-26T01:42:50;99899.34;;;-2.52;100.00
41250;BME280;26984;59.928;30.306;2023-02-26T01:45:19;99903.09;;;-2.54;100.00
41250;BME280;26984;59.928;30.306;2023-02-26T01:47:50;99907.50;;;-2.45;100.00
41250;BME280;26984;59.928;30.306;2023-02-26T01:50:21;99922.69;;;-2.39;100.00
41250;BME280;26984;59.928;30.306;2023-02-26T01:55:34;99895.88;;;-2.52;100.00
41250;BME280;26984;59.928;30.306;2023-02-26T01:58:01;99906.44;;;-2.52;100.00
41250;BME280;26984;59.928;30.306;2023-02-26T02:00:30;99901.00;;;-2.51;100.00
41250;BME280;26984;59.928;30.306;2023-02-26T02:02:58;99896.72;;;-2.52;100.00
41250;BME280;26984;59.928;30.306;2023-02-26T02:05:27;99889.44;;;-2.68;100.00
41250;BME280;26984;59.928;30.306;2023-02-26T02:07:56;99894.72;;;-2.50;100.00
41250;BME280;26984;59.928;30.306;2023-02-26T02:10:24;99897.22;;;-2.48;100.00
41250;BME280;26984;59.928;30.306;2023-02-26T02:12:55;99913.50;;;-2.53;100.00
41250;BME280;26984;59.928;30.306;2023-02-26T02:15:27;99905.88;;;-2.74;100.00
41250;BME280;26984;59.928;30.306;2023-02-26T02:18:03;99905.72;;;-2.72;100.00
41250;BME280;26984;59.928;30.306;2023-02-26T02:23:28;99886.19;;;-2.79;100.00
41250;BME280;26984;59.928;30.306;2023-02-26T02:31:39;99906.63;;;-2.63;100.00
41250;BME280;26984;59.928;30.306;2023-02-26T02:34:08;99901.88;;;-2.60;100.00
41250;BME280;26984;59.928;30.306;2023-02-26T02:36:40;99917.16;;;-2.63;100.00
41250;BME280;26984;59.928;30.306;2023-02-26T02:39:12;99909.34;;;-2.73;100.00
41250;BME280;26984;59.928;30.306;2023-02-26T02:41:42;99915.28;;;-2.71;100.00
41250;BME280;26984;59.928;30.306;2023-02-26T02:44:12;99905.34;;;-2.77;100.00
41250;BME280;26984;59.928;30.306;2023-02-26T02:46:44;99935.59;;;-2.81;100.00
41250;BME280;26984;59.928;30.306;2023-02-26T02:49:17;99905.94;;;-2.83;100.00
41250;BME280;26984;59.928;30.306;2023-02-26T02:51:48;99922.94;;;-2.78;100.00
41250;BME280;26984;59.928;30.306;2023-02-26T02:54:17;99898.69;;;-2.81;100.00
41250;BME280;26984;59.928;30.306;2023-02-26T02:56:48;99907.34;;;-2.89;100.00
41250;BME280;26984;59.928;30.306;2023-02-26T02:59:19;99891.97;;;-2.94;100.00
41250;BME280;26984;59.928;30.306;2023-02-26T03:01:51;99911.66;;;-2.88;100.00
41250;BME280;26984;59.928;30.306;2023-02-26T03:04:24;99915.78;;;-2.85;100.00
41250;BME280;26984;59.928;30.306;2023-02-26T03:06:51;99910.09;;;-2.81;100.00
41250;BME280;26984;59.928;30.306;2023-02-26T03:09:19;99902.31;;;-2.82;100.00
41250;BME280;26984;59.928;30.306;2023-02-26T03:11:46;99908.28;;;-2.80;100.00
41250;BME280;26984;59.928;30.306;2023-02-26T03:14:14;99916.94;;;-2.88;100.00
41250;BME280;26984;59.928;30.306;2023-02-26T03:16:51;99919.69;;;-2.90;100.00
41250;BME280;26984;59.928;30.306;2023-02-26T03:19:28;99920.44;;;-2.97;100.00
41250;BME280;26984;59.928;30.306;2023-02-26T03:22:00;99934.19;;;-3.03;100.00
41250;BME280;26984;59.928;30.306;2023-02-26T03:24:54;99916.97;;;-2.98;100.00
41250;BME280;26984;59.928;30.306;2023-02-26T03:27:24;99918.56;;;-2.87;100.00
41250;BME280;26984;59.928;30.306;2023-02-26T03:29:54;99941.75;;;-2.91;100.00
41250;BME280;26984;59.928;30.306;2023-02-26T03:32:27;99910.34;;;-3.02;100.00
41250;BME280;26984;59.928;30.306;2023-02-26T03:34:58;99922.81;;;-3.04;100.00
41250;BME280;26984;59.928;30.306;2023-02-26T03:37:30;99927.41;;;-3.06;100.00
41250;BME280;26984;59.928;30.306;2023-02-26T03:40:00;99922.16;;;-3.06;100.00
41250;BME280;26984;59.928;30.306;2023-02-26T03:42:31;99915.66;;;-3.11;100.00
41250;BME280;26984;59.928;30.306;2023-02-26T03:45:05;99914.56;;;-3.19;100.00
41250;BME280;26984;59.928;30.306;2023-02-26T03:47:37;99916.75;;;-3.14;100.00
41250;BME280;26984;59.928;30.306;2023-02-26T03:50:08;99925.75;;;-3.07;100.00
41250;BME280;26984;59.928;30.306;2023-02-26T03:52:48;99915.34;;;-3.08;100.00
41250;BME280;26984;59.928;30.306;2023-02-26T03:55:41;99918.44;;;-3.13;100.00
41250;BME280;26984;59.928;30.306;2023-02-26T03:58:31;99923.56;;;-3.11;100.00
41250;BME280;26984;59.928;30.306;2023-02-26T04:01:15;99920.66;;;-3.18;100.00
41250;BME280;26984;59.928;30.306;2023-02-26T04:03:48;99915.09;;;-3.15;100.00
41250;BME280;26984;59.928;30.306;2023-02-26T04:06:19;99911.06;;;-3.09;100.00
41250;BME280;26984;59.928;30.306;2023-02-26T04:08:46;99928.66;;;-3.10;100.00
41250;BME280;26984;59.928;30.306;2023-02-26T04:11:15;99903.75;;;-3.16;100.00
41250;BME280;26984;59.928;30.306;2023-02-26T04:13:43;99915.06;;;-3.05;100.00
41250;BME280;26984;59.928;30.306;2023-02-26T04:16:12;99909.94;;;-3.07;100.00
41250;BME280;26984;59.928;30.306;2023-02-26T04:18:39;99915.84;;;-2.95;100.00
41250;BME280;26984;59.928;30.306;2023-02-26T04:21:11;99916.06;;;-2.89;100.00
41250;BME280;26984;59.928;30.306;2023-02-26T04:23:39;99894.59;;;-2.94;100.00
41250;BME280;26984;59.928;30.306;2023-02-26T04:26:06;99915.59;;;-3.02;100.00
41250;BME280;26984;59.928;30.306;2023-02-26T04:28:38;99905.06;;;-3.02;100.00
41250;BME280;26984;59.928;30.306;2023-02-26T04:31:06;99909.69;;;-3.14;100.00
41250;BME280;26984;59.928;30.306;2023-02-26T04:33:34;99901.69;;;-3.22;100.00
41250;BME280;26984;59.928;30.306;2023-02-26T04:36:02;99896.13;;;-3.19;100.00
41250;BME280;26984;59.928;30.306;2023-02-26T04:38:31;99904.69;;;-3.17;100.00
41250;BME280;26984;59.928;30.306;2023-02-26T04:40:59;99906.63;;;-3.09;100.00
41250;BME280;26984;59.928;30.306;2023-02-26T04:43:26;99916.63;;;-3.13;100.00
41250;BME280;26984;59.928;30.306;2023-02-26T04:46:11;99909.78;;;-3.05;100.00
41250;BME280;26984;59.928;30.306;2023-02-26T04:48:38;99904.94;;;-3.10;100.00
41250;BME280;26984;59.928;30.306;2023-02-26T04:51:06;99910.63;;;-3.05;100.00
41250;BME280;26984;59.928;30.306;2023-02-26T04:53:35;99921.84;;;-3.03;100.00
41250;BME280;26984;59.928;30.306;2023-02-26T04:56:03;99930.59;;;-3.02;100.00
41250;BME280;26984;59.928;30.306;2023-02-26T04:58:31;99924.06;;;-2.98;100.00
41250;BME280;26984;59.928;30.306;2023-02-26T05:01:04;99908.63;;;-2.93;100.00
41250;BME280;26984;59.928;30.306;2023-02-26T05:03:33;99924.19;;;-3.00;100.00
41250;BME280;26984;59.928;30.306;2023-02-26T05:06:10;99937.34;;;-3.00;100.00
41250;BME280;26984;59.928;30.306;2023-02-26T05:08:39;99927.25;;;-3.04;100.00
41250;BME280;26984;59.928;30.306;2023-02-26T05:11:08;99925.69;;;-2.97;100.00
41250;BME280;26984;59.928;30.306;2023-02-26T05:13:35;99918.88;;;-2.90;100.00
41250;BME280;26984;59.928;30.306;2023-02-26T05:16:03;99921.25;;;-2.97;100.00
41250;BME280;26984;59.928;30.306;2023-02-26T05:18:30;99929.41;;;-2.90;100.00
41250;BME280;26984;59.928;30.306;2023-02-26T05:20:58;99926.28;;;-3.03;100.00
41250;BME280;26984;59.928;30.306;2023-02-26T05:23:26;99937.97;;;-3.06;100.00
41250;BME280;26984;59.928;30.306;2023-02-26T05:25:55;99899.69;;;-3.10;100.00
41250;BME280;26984;59.928;30.306;2023-02-26T05:28:23;99914.94;;;-3.14;100.00
41250;BME280;26984;59.928;30.306;2023-02-26T05:30:51;99913.53;;;-3.08;100.00
41250;BME280;26984;59.928;30.306;2023-02-26T05:33:20;99910.34;;;-3.02;100.00
41250;BME280;26984;59.928;30.306;2023-02-26T05:35:47;99920.88;;;-3.02;100.00
41250;BME280;26984;59.928;30.306;2023-02-26T05:38:15;99932.69;;;-3.06;100.00
41250;BME280;26984;59.928;30.306;2023-02-26T05:40:42;99923.25;;;-3.08;100.00
41250;BME280;26984;59.928;30.306;2023-02-26T05:43:11;99898.81;;;-3.01;100.00
41250;BME280;26984;59.928;30.306;2023-02-26T05:45:38;99910.72;;;-2.97;100.00
41250;BME280;26984;59.928;30.306;2023-02-26T05:48:06;99920.19;;;-3.04;100.00
41250;BME280;26984;59.928;30.306;2023-02-26T05:50:36;99922.81;;;-3.04;100.00
41250;BME280;26984;59.928;30.306;2023-02-26T05:53:03;99931.16;;;-3.08;100.00
41250;BME280;26984;59.928;30.306;2023-02-26T05:55:31;99918.13;;;-3.10;100.00
41250;BME280;26984;59.928;30.306;2023-02-26T05:57:58;99925.34;;;-3.12;100.00
41250;BME280;26984;59.928;30.306;2023-02-26T06:00:27;99929.25;;;-3.16;100.00
41250;BME280;26984;59.928;30.306;2023-02-26T06:02:55;99923.56;;;-3.11;100.00
41250;BME280;26984;59.928;30.306;2023-02-26T06:05:23;99932.00;;;-3.08;100.00
41250;BME280;26984;59.928;30.306;2023-02-26T06:07:50;99947.59;;;-2.97;100.00
41250;BME280;26984;59.928;30.306;2023-02-26T06:10:18;99935.78;;;-2.93;100.00
41250;BME280;26984;59.928;30.306;2023-02-26T06:12:45;99957.88;;;-2.94;100.00
41250;BME280;26984;59.928;30.306;2023-02-26T06:15:13;99958.25;;;-2.89;100.00
41250;BME280;26984;59.928;30.306;2023-02-26T06:17:42;99972.44;;;-2.99;100.00
41250;BME280;26984;59.928;30.306;2023-02-26T06:20:10;99970.66;;;-2.99;100.00
41250;BME280;26984;59.928;30.306;2023-02-26T06:22:37;99964.16;;;-3.04;100.00
41250;BME280;26984;59.928;30.306;2023-02-26T06:25:05;99968.63;;;-3.15;100.00
41250;BME280;26984;59.928;30.306;2023-02-26T06:27:33;99967.34;;;-3.10;100.00
41250;BME280;26984;59.928;30.306;2023-02-26T06:30:02;99954.06;;;-3.09;100.00
41250;BME280;26984;59.928;30.306;2023-02-26T06:32:29;99966.41;;;-3.09;100.00
41250;BME280;26984;59.928;30.306;2023-02-26T06:34:58;99970.13;;;-3.02;100.00
41250;BME280;26984;59.928;30.306;2023-02-26T06:37:26;99972.91;;;-3.14;100.00
41250;BME280;26984;59.928;30.306;2023-02-26T06:39:53;99960.88;;;-3.16;100.00
41250;BME280;26984;59.928;30.306;2023-02-26T06:42:20;99966.72;;;-3.22;100.00
41250;BME280;26984;59.928;30.306;2023-02-26T06:44:48;99967.16;;;-3.27;100.00
41250;BME280;26984;59.928;30.306;2023-02-26T06:47:15;99981.28;;;-3.28;100.00
41250;BME280;26984;59.928;30.306;2023-02-26T06:49:43;99974.06;;;-3.26;100.00
41250;BME280;26984;59.928;30.306;2023-02-26T06:52:12;99968.09;;;-3.28;100.00
41250;BME280;26984;59.928;30.306;2023-02-26T06:54:39;99964.94;;;-3.31;100.00
41250;BME280;26984;59.928;30.306;2023-02-26T06:57:07;99964.09;;;-3.22;100.00
41250;BME280;26984;59.928;30.306;2023-02-26T06:59:34;99959.47;;;-3.20;100.00
41250;BME280;26984;59.928;30.306;2023-02-26T07:02:02;99960.75;;;-3.24;100.00
41250;BME280;26984;59.928;30.306;2023-02-26T07:04:29;99959.91;;;-3.25;100.00
41250;BME280;26984;59.928;30.306;2023-02-26T07:06:57;99987.34;;;-3.18;100.00
41250;BME280;26984;59.928;30.306;2023-02-26T07:09:25;99989.44;;;-3.21;100.00
41250;BME280;26984;59.928;30.306;2023-02-26T07:11:53;99996.38;;;-3.20;100.00
41250;BME280;26984;59.928;30.306;2023-02-26T07:14:20;99956.03;;;-3.21;100.00
41250;BME280;26984;59.928;30.306;2023-02-26T07:16:48;99972.38;;;-3.17;100.00
41250;BME280;26984;59.928;30.306;2023-02-26T07:19:15;99982.75;;;-3.06;100.00
41250;BME280;26984;59.928;30.306;2023-02-26T07:21:43;99973.63;;;-3.11;100.00
41250;BME280;26984;59.928;30.306;2023-02-26T07:24:10;99985.16;;;-3.22;100.00
41250;BME280;26984;59.928;30.306;2023-02-26T07:26:39;99966.44;;;-3.19;100.00
41250;BME280;26984;59.928;30.306;2023-02-26T07:29:06;99978.53;;;-3.26;100.00
41250;BME280;26984;59.928;30.306;2023-02-26T07:31:34;99983.91;;;-3.28;100.00
41250;BME280;26984;59.928;30.306;2023-02-26T07:34:02;99999.31;;;-3.23;100.00
41250;BME280;26984;59.928;30.306;2023-02-26T07:36:29;99978.53;;;-3.26;100.00
41250;BME280;26984;59.928;30.306;2023-02-26T07:38:57;99990.00;;;-3.27;100.00
41250;BME280;26984;59.928;30.306;2023-02-26T07:41:24;100001.94;;;-3.23;100.00
41250;BME280;26984;59.928;30.306;2023-02-26T07:43:53;99993.72;;;-3.20;100.00
41250;BME280;26984;59.928;30.306;2023-02-26T07:46:20;99986.97;;;-3.23;100.00
41250;BME280;26984;59.928;30.306;2023-02-26T07:48:48;99988.88;;;-3.15;100.00
41250;BME280;26984;59.928;30.306;2023-02-26T07:51:15;99994.00;;;-3.14;100.00
41250;BME280;26984;59.928;30.306;2023-02-26T07:53:43;99986.09;;;-3.14;100.00
41250;BME280;26984;59.928;30.306;2023-02-26T07:56:10;99998.72;;;-3.17;100.00
41250;BME280;26984;59.928;30.306;2023-02-26T07:58:38;100042.50;;;-3.06;100.00
41250;BME280;26984;59.928;30.306;2023-02-26T08:01:06;100008.16;;;-3.15;100.00
41250;BME280;26984;59.928;30.306;2023-02-26T08:03:34;99997.88;;;-3.18;100.00
41250;BME280;26984;59.928;30.306;2023-02-26T08:06:02;100010.53;;;-3.21;100.00
41250;BME280;26984;59.928;30.306;2023-02-26T08:08:30;99993.97;;;-3.04;100.00
41250;BME280;26984;59.928;30.306;2023-02-26T08:10:58;100003.13;;;-2.98;100.00
41250;BME280;26984;59.928;30.306;2023-02-26T08:13:25;100002.56;;;-3.02;100.00
41250;BME280;26984;59.928;30.306;2023-02-26T08:15:53;100009.22;;;-2.98;100.00
41250;BME280;26984;59.928;30.306;2023-02-26T08:18:22;100021.31;;;-3.05;100.00
41250;BME280;26984;59.928;30.306;2023-02-26T08:20:49;100001.22;;;-3.16;100.00
41250;BME280;26984;59.928;30.306;2023-02-26T08:23:18;100003.69;;;-3.14;100.00
41250;BME280;26984;59.928;30.306;2023-02-26T08:25:45;100010.09;;;-3.17;100.00
41250;BME280;26984;59.928;30.306;2023-02-26T08:28:13;100014.25;;;-3.14;100.00
41250;BME280;26984;59.928;30.306;2023-02-26T08:30:41;100008.44;;;-3.18;100.00
41250;BME280;26984;59.928;30.306;2023-02-26T08:33:08;100011.78;;;-3.25;100.00
41250;BME280;26984;59.928;30.306;2023-02-26T08:35:37;100011.50;;;-3.22;100.00
41250;BME280;26984;59.928;30.306;2023-02-26T08:38:04;100008.31;;;-3.16;100.00
41250;BME280;26984;59.928;30.306;2023-02-26T08:40:32;100029.94;;;-3.13;100.00
41250;BME280;26984;59.928;30.306;2023-02-26T08:42:59;100028.22;;;-3.04;100.00
41250;BME280;26984;59.928;30.306;2023-02-26T08:45:28;100032.50;;;-3.03;100.00
41250;BME280;26984;59.928;30.306;2023-02-26T08:47:56;100018.31;;;-2.92;100.00
41250;BME280;26984;59.928;30.306;2023-02-26T08:50:23;100030.28;;;-2.98;100.00
41250;BME280;26984;59.928;30.306;2023-02-26T08:52:52;100002.94;;;-2.97;100.00
41250;BME280;26984;59.928;30.306;2023-02-26T08:55:20;100033.78;;;-3.17;100.00
41250;BME280;26984;59.928;30.306;2023-02-26T08:57:47;100033.50;;;-3.14;100.00
41250;BME280;26984;59.928;30.306;2023-02-26T09:00:15;100044.50;;;-3.18;100.00
41250;BME280;26984;59.928;30.306;2023-02-26T09:02:43;100031.84;;;-3.15;100.00
41250;BME280;26984;59.928;30.306;2023-02-26T09:05:11;100049.19;;;-3.02;100.00
41250;BME280;26984;59.928;30.306;2023-02-26T09:07:39;100036.56;;;-2.99;100.00
41250;BME280;26984;59.928;30.306;2023-02-26T09:10:09;100031.69;;;-3.03;100.00
41250;BME280;26984;59.928;30.306;2023-02-26T09:12:37;100036.78;;;-2.92;100.00
41250;BME280;26984;59.928;30.306;2023-02-26T09:15:04;100028.78;;;-3.00;100.00
41250;BME280;26984;59.928;30.306;2023-02-26T09:17:32;100046.09;;;-2.98;100.00
41250;BME280;26984;59.928;30.306;2023-02-26T09:20:00;100053.84;;;-2.96;100.00
41250;BME280;26984;59.928;30.306;2023-02-26T09:22:27;100074.69;;;-3.03;100.00
41250;BME280;26984;59.928;30.306;2023-02-26T09:24:55;100036.69;;;-3.00;100.00
41250;BME280;26984;59.928;30.306;2023-02-26T09:27:24;100048.47;;;-2.95;100.00
41250;BME280;26984;59.928;30.306;2023-02-26T09:29:51;100044.28;;;-2.97;100.00
41250;BME280;26984;59.928;30.306;2023-02-26T09:32:19;100041.66;;;-2.97;100.00
41250;BME280;26984;59.928;30.306;2023-02-26T09:34:46;100066.38;;;-2.98;100.00
41250;BME280;26984;59.928;30.306;2023-02-26T09:37:14;100059.88;;;-3.14;100.00
41250;BME280;26984;59.928;30.306;2023-02-26T09:39:41;100046.94;;;-3.07;100.00
41250;BME280;26984;59.928;30.306;2023-02-26T09:42:10;100051.63;;;-2.91;100.00
41250;BME280;26984;59.928;30.306;2023-02-26T09:44:45;100076.28;;;-2.73;100.00
41250;BME280;26984;59.928;30.306;2023-02-26T09:47:14;100053.69;;;-2.85;100.00
41250;BME280;26984;59.928;30.306;2023-02-26T09:49:46;100059.56;;;-2.91;100.00
41250;BME280;26984;59.928;30.306;2023-02-26T09:52:17;100083.66;;;-2.86;100.00
41250;BME280;26984;59.928;30.306;2023-02-26T09:54:48;100061.19;;;-2.90;100.00
41250;BME280;26984;59.928;30.306;2023-02-26T09:57:20;100077.56;;;-2.86;100.00
41250;BME280;26984;59.928;30.306;2023-02-26T09:59:52;100080.50;;;-2.99;100.00
41250;BME280;26984;59.928;30.306;2023-02-26T10:02:20;100097.00;;;-2.97;100.00
41250;BME280;26984;59.928;30.306;2023-02-26T10:04:54;100090.22;;;-3.00;100.00
41250;BME280;26984;59.928;30.306;2023-02-26T10:07:27;100075.22;;;-2.99;100.00
41250;BME280;26984;59.928;30.306;2023-02-26T10:10:06;100104.91;;;-2.97;100.00
41250;BME280;26984;59.928;30.306;2023-02-26T10:12:35;100074.84;;;-3.04;100.00
41250;BME280;26984;59.928;30.306;2023-02-26T10:15:05;100092.72;;;-2.98;100.00
41250;BME280;26984;59.928;30.306;2023-02-26T10:17:38;100097.16;;;-2.99;100.00
41250;BME280;26984;59.928;30.306;2023-02-26T10:20:09;100087.72;;;-3.01;100.00
41250;BME280;26984;59.928;30.306;2023-02-26T10:22:39;100091.31;;;-2.93;100.00
41250;BME280;26984;59.928;30.306;2023-02-26T10:25:10;100081.31;;;-2.89;100.00
41250;BME280;26984;59.928;30.306;2023-02-26T10:27:42;100102.81;;;-2.84;100.00
41250;BME280;26984;59.928;30.306;2023-02-26T10:30:15;100101.84;;;-2.83;100.00
41250;BME280;26984;59.928;30.306;2023-02-26T10:32:50;100110.56;;;-2.82;100.00
41250;BME280;26984;59.928;30.306;2023-02-26T10:35:21;100095.84;;;-2.75;100.00
41250;BME280;26984;59.928;30.306;2023-02-26T10:37:53;100135.28;;;-2.83;100.00
41250;BME280;26984;59.928;30.306;2023-02-26T10:40:23;100109.91;;;-2.94;100.00
41250;BME280;26984;59.928;30.306;2023-02-26T10:42:55;100125.56;;;-2.83;100.00
41250;BME280;26984;59.928;30.306;2023-02-26T10:45:29;100134.44;;;-2.84;100.00
41250;BME280;26984;59.928;30.306;2023-02-26T10:48:04;100112.44;;;-3.02;100.00
41250;BME280;26984;59.928;30.306;2023-02-26T10:50:35;100114.34;;;-2.95;100.00
41250;BME280;26984;59.928;30.306;2023-02-26T10:53:02;100118.50;;;-2.92;100.00
41250;BME280;26984;59.928;30.306;2023-02-26T10:55:34;100125.84;;;-2.96;100.00
41250;BME280;26984;59.928;30.306;2023-02-26T10:58:09;100124.34;;;-2.98;100.00
41250;BME280;26984;59.928;30.306;2023-02-26T11:00:39;100125.03;;;-2.96;100.00
41250;BME280;26984;59.928;30.306;2023-02-26T11:03:08;100108.94;;;-2.93;100.00
41250;BME280;26984;59.928;30.306;2023-02-26T11:05:38;100140.56;;;-2.93;100.00
41250;BME280;26984;59.928;30.306;2023-02-26T11:08:08;100122.81;;;-2.91;100.00
41250;BME280;26984;59.928;30.306;2023-02-26T11:10:39;100142.91;;;-2.90;100.00
41250;BME280;26984;59.928;30.306;2023-02-26T11:13:07;100139.84;;;-2.85;100.00
41250;BME280;26984;59.928;30.306;2023-02-26T11:15:35;100131.66;;;-2.92;100.00
41250;BME280;26984;59.928;30.306;2023-02-26T11:18:04;100136.38;;;-2.86;100.00
41250;BME280;26984;59.928;30.306;2023-02-26T11:20:35;100130.91;;;-2.65;100.00
41250;BME280;26984;59.928;30.306;2023-02-26T11:23:06;100134.25;;;-2.63;100.00
41250;BME280;26984;59.928;30.306;2023-02-26T11:25:37;100166.75;;;-2.72;100.00
41250;BME280;26984;59.928;30.306;2023-02-26T11:28:05;100149.84;;;-2.79;100.00
41250;BME280;26984;59.928;30.306;2023-02-26T11:30:35;100142.31;;;-2.74;100.00
41250;BME280;26984;59.928;30.306;2023-02-26T11:33:05;100163.41;;;-2.74;100.00
41250;BME280;26984;59.928;30.306;2023-02-26T11:35:34;100184.75;;;-2.68;100.00
41250;BME280;26984;59.928;30.306;2023-02-26T11:38:02;100169.97;;;-2.98;100.00
41250;BME280;26984;59.928;30.306;2023-02-26T11:40:32;100181.50;;;-2.99;100.00
41250;BME280;26984;59.928;30.306;2023-02-26T11:43:03;100183.97;;;-2.87;100.00
41250;BME280;26984;59.928;30.306;2023-02-26T11:45:32;100183.56;;;-2.93;100.00
41250;BME280;26984;59.928;30.306;2023-02-26T11:48:01;100185.38;;;-3.03;100.00
41250;BME280;26984;59.928;30.306;2023-02-26T11:50:32;100188.44;;;-2.88;100.00
41250;BME280;26984;59.928;30.306;2023-02-26T11:53:04;100194.81;;;-2.91;100.00
41250;BME280;26984;59.928;30.306;2023-02-26T11:55:33;100193.41;;;-2.85;100.00
41250;BME280;26984;59.928;30.306;2023-02-26T11:58:01;100182.28;;;-2.79;100.00
41250;BME280;26984;59.928;30.306;2023-02-26T12:00:34;100209.38;;;-2.86;100.00
41250;BME280;26984;59.928;30.306;2023-02-26T12:03:03;100196.06;;;-2.95;100.00
41250;BME280;26984;59.928;30.306;2023-02-26T12:05:34;100204.78;;;-2.94;100.00
41250;BME280;26984;59.928;30.306;2023-02-26T12:08:03;100189.81;;;-3.03;100.00
41250;BME280;26984;59.928;30.306;2023-02-26T12:10:35;100185.25;;;-2.92;100.00
41250;BME280;26984;59.928;30.306;2023-02-26T12:13:07;100212.44;;;-3.01;100.00
41250;BME280;26984;59.928;30.306;2023-02-26T12:15:38;100242.41;;;-3.02;100.00
41250;BME280;26984;59.928;30.306;2023-02-26T12:18:16;100226.59;;;-3.02;100.00
41250;BME280;26984;59.928;30.306;2023-02-26T12:20:50;100226.31;;;-2.99;100.00
41250;BME280;26984;59.928;30.306;2023-02-26T12:23:32;100231.56;;;-2.99;100.00
41250;BME280;26984;59.928;30.306;2023-02-26T12:26:10;100252.91;;;-3.11;100.00
41250;BME280;26984;59.928;30.306;2023-02-26T12:31:45;100241.25;;;-3.19;100.00
41250;BME280;26984;59.928;30.306;2023-02-26T12:34:20;100255.97;;;-3.26;100.00
41250;BME280;26984;59.928;30.306;2023-02-26T12:39:42;100271.88;;;-3.27;100.00
41250;BME280;26984;59.928;30.306;2023-02-26T12:42:17;100243.91;;;-3.19;100.00
41250;BME280;26984;59.928;30.306;2023-02-26T12:44:52;100262.63;;;-3.22;100.00
41250;BME280;26984;59.928;30.306;2023-02-26T12:47:25;100256.63;;;-3.24;100.00
41250;BME280;26984;59.928;30.306;2023-02-26T12:50:02;100269.56;;;-3.11;100.00
41250;BME280;26984;59.928;30.306;2023-02-26T12:52:42;100280.81;;;-3.09;100.00
41250;BME280;26984;59.928;30.306;2023-02-26T12:55:22;100265.69;;;-3.07;100.00
41250;BME280;26984;59.928;30.306;2023-02-26T12:58:01;100259.03;;;-3.11;100.00
41250;BME280;26984;59.928;30.306;2023-02-26T13:00:37;100261.94;;;-3.14;100.00
41250;BME280;26984;59.928;30.306;2023-02-26T13:06:10;100288.28;;;-3.14;100.00
41250;BME280;26984;59.928;30.306;2023-02-26T13:08:43;100282.88;;;-3.13;100.00
41250;BME280;26984;59.928;30.306;2023-02-26T13:11:18;100281.06;;;-3.12;100.00